Terminal Aerodrome Forecast
Issued by NWS

Home | Current Version | Previous Version | Text Only | Print | Product List | Glossary On
Versions: 1 2 3 4 5 6 7 8 9 10 11 12 13 14 15 16 17 18 19 20 21 22 23 24 25 26 27 28 29 30 31 32 33 34
000
FTUS44 KHGX 111123
TAFUTS
TAF
KUTS 111123Z 1112/1212 15007KT P6SM VCSH BKN020 OVC040
     FM111600 18012G22KT 5SM BR SCT009 OVC015
     FM120300 18011KT 4SM BR OVC007=

USA.gov is the U.S. government's official web portal to all federal, state and local government web resources and services.